sensor_id;sensor_type;location;lat;lon;timestamp;temperature;humidity
60234;DHT22;49514;43.538;-5.708;2022-12-29T00:01:37;14.60;99.90
60234;DHT22;49514;43.538;-5.708;2022-12-29T00:04:05;14.70;99.90
60234;DHT22;49514;43.538;-5.708;2022-12-29T00:06:32;14.70;99.90
60234;DHT22;49514;43.538;-5.708;2022-12-29T00:08:59;14.70;99.90
60234;DHT22;49514;43.538;-5.708;2022-12-29T00:11:27;14.70;99.90
60234;DHT22;49514;43.538;-5.708;2022-12-29T00:13:53;14.70;99.90
60234;DHT22;49514;43.538;-5.708;2022-12-29T00:16:42;14.70;99.90
60234;DHT22;49514;43.538;-5.708;2022-12-29T00:19:10;14.70;99.90
60234;DHT22;49514;43.538;-5.708;2022-12-29T00:21:57;14.70;99.90
60234;DHT22;49514;43.538;-5.708;2022-12-29T00:24:44;14.70;99.90
60234;DHT22;49514;43.538;-5.708;2022-12-29T00:27:20;14.80;99.90
60234;DHT22;49514;43.538;-5.708;2022-12-29T00:30:10;14.70;99.90
60234;DHT22;49514;43.538;-5.708;2022-12-29T00:32:56;14.70;99.90
60234;DHT22;49514;43.538;-5.708;2022-12-29T00:38:31;14.70;99.90
60234;DHT22;49514;43.538;-5.708;2022-12-29T00:41:17;14.60;99.90
60234;DHT22;49514;43.538;-5.708;2022-12-29T00:44:03;14.60;99.90
60234;DHT22;49514;43.538;-5.708;2022-12-29T00:46:34;14.60;99.90
60234;DHT22;49514;43.538;-5.708;2022-12-29T00:49:01;14.60;99.90
60234;DHT22;49514;43.538;-5.708;2022-12-29T00:51:47;14.50;99.90
60234;DHT22;49514;43.538;-5.708;2022-12-29T00:54:15;14.50;99.90
60234;DHT22;49514;43.538;-5.708;2022-12-29T00:56:42;14.50;99.90
60234;DHT22;49514;43.538;-5.708;2022-12-29T00:59:10;14.50;99.90
60234;DHT22;49514;43.538;-5.708;2022-12-29T01:01:38;14.50;99.90
60234;DHT22;49514;43.538;-5.708;2022-12-29T01:04:05;14.50;99.90
60234;DHT22;49514;43.538;-5.708;2022-12-29T01:06:32;14.50;99.90
60234;DHT22;49514;43.538;-5.708;2022-12-29T01:09:00;14.40;99.90
60234;DHT22;49514;43.538;-5.708;2022-12-29T01:11:45;14.50;99.90
60234;DHT22;49514;43.538;-5.708;2022-12-29T01:14:12;14.40;99.90
60234;DHT22;49514;43.538;-5.708;2022-12-29T01:16:38;14.50;99.90
60234;DHT22;49514;43.538;-5.708;2022-12-29T01:19:05;14.50;99.90
60234;DHT22;49514;43.538;-5.708;2022-12-29T01:21:32;14.50;99.90
60234;DHT22;49514;43.538;-5.708;2022-12-29T01:23:59;14.50;99.90
60234;DHT22;49514;43.538;-5.708;2022-12-29T01:26:25;14.40;99.90
60234;DHT22;49514;43.538;-5.708;2022-12-29T01:28:52;14.40;99.90
60234;DHT22;49514;43.538;-5.708;2022-12-29T01:31:19;14.30;99.90
60234;DHT22;49514;43.538;-5.708;2022-12-29T01:33:46;14.30;99.90
60234;DHT22;49514;43.538;-5.708;2022-12-29T01:36:15;14.30;99.90
60234;DHT22;49514;43.538;-5.708;2022-12-29T01:38:42;14.30;99.90
60234;DHT22;49514;43.538;-5.708;2022-12-29T01:41:10;14.30;99.90
60234;DHT22;49514;43.538;-5.708;2022-12-29T01:46:39;14.20;99.90
60234;DHT22;49514;43.538;-5.708;2022-12-29T01:49:23;14.20;99.90
60234;DHT22;49514;43.538;-5.708;2022-12-29T01:52:00;14.20;99.90
60234;DHT22;49514;43.538;-5.708;2022-12-29T01:54:40;14.20;99.90
60234;DHT22;49514;43.538;-5.708;2022-12-29T01:57:12;14.20;99.90
60234;DHT22;49514;43.538;-5.708;2022-12-29T01:59:46;14.30;99.90
60234;DHT22;49514;43.538;-5.708;2022-12-29T02:02:15;14.30;99.90
60234;DHT22;49514;43.538;-5.708;2022-12-29T02:04:43;14.30;99.90
60234;DHT22;49514;43.538;-5.708;2022-12-29T02:07:19;14.30;99.90
60234;DHT22;49514;43.538;-5.708;2022-12-29T02:09:49;14.20;99.90
60234;DHT22;49514;43.538;-5.708;2022-12-29T02:12:18;14.20;99.90
60234;DHT22;49514;43.538;-5.708;2022-12-29T02:14:46;14.30;99.90
60234;DHT22;49514;43.538;-5.708;2022-12-29T02:17:55;14.20;99.90
60234;DHT22;49514;43.538;-5.708;2022-12-29T02:39:44;14.20;99.90
60234;DHT22;49514;43.538;-5.708;2022-12-29T02:50:06;14.40;99.90
60234;DHT22;49514;43.538;-5.708;2022-12-29T02:52:39;14.30;99.90
60234;DHT22;49514;43.538;-5.708;2022-12-29T02:55:06;14.40;99.90
60234;DHT22;49514;43.538;-5.708;2022-12-29T02:57:35;14.40;99.90
60234;DHT22;49514;43.538;-5.708;2022-12-29T03:00:09;14.40;99.90
60234;DHT22;49514;43.538;-5.708;2022-12-29T03:03:06;14.40;99.90
60234;DHT22;49514;43.538;-5.708;2022-12-29T03:06:24;14.40;99.90
60234;DHT22;49514;43.538;-5.708;2022-12-29T03:09:18;14.40;99.90
60234;DHT22;49514;43.538;-5.708;2022-12-29T03:15:08;14.40;99.90
60234;DHT22;49514;43.538;-5.708;2022-12-29T03:17:58;14.40;99.90
60234;DHT22;49514;43.538;-5.708;2022-12-29T03:20:39;14.40;99.90
60234;DHT22;49514;43.538;-5.708;2022-12-29T03:23:09;14.40;99.90
60234;DHT22;49514;43.538;-5.708;2022-12-29T03:25:40;14.40;99.90
60234;DHT22;49514;43.538;-5.708;2022-12-29T03:28:17;14.40;99.90
60234;DHT22;49514;43.538;-5.708;2022-12-29T03:30:47;14.40;99.90
60234;DHT22;49514;43.538;-5.708;2022-12-29T03:33:22;14.30;99.90
60234;DHT22;49514;43.538;-5.708;2022-12-29T03:35:54;14.30;99.90
60234;DHT22;49514;43.538;-5.708;2022-12-29T03:39:05;14.30;99.90
60234;DHT22;49514;43.538;-5.708;2022-12-29T03:41:35;14.30;99.90
60234;DHT22;49514;43.538;-5.708;2022-12-29T03:44:06;14.30;99.90
60234;DHT22;49514;43.538;-5.708;2022-12-29T03:46:33;14.30;99.90
60234;DHT22;49514;43.538;-5.708;2022-12-29T03:49:01;14.20;99.90
60234;DHT22;49514;43.538;-5.708;2022-12-29T03:51:28;14.20;99.90
60234;DHT22;49514;43.538;-5.708;2022-12-29T03:53:55;14.20;99.90
60234;DHT22;49514;43.538;-5.708;2022-12-29T03:56:22;14.20;99.90
60234;DHT22;49514;43.538;-5.708;2022-12-29T03:58:49;14.20;99.90
60234;DHT22;49514;43.538;-5.708;2022-12-29T04:01:21;14.10;99.90
60234;DHT22;49514;43.538;-5.708;2022-12-29T04:03:48;14.20;99.90
60234;DHT22;49514;43.538;-5.708;2022-12-29T04:06:16;14.20;99.90
60234;DHT22;49514;43.538;-5.708;2022-12-29T04:09:05;14.10;99.90
60234;DHT22;49514;43.538;-5.708;2022-12-29T04:11:37;14.10;99.90
60234;DHT22;49514;43.538;-5.708;2022-12-29T04:14:04;14.10;99.90
60234;DHT22;49514;43.538;-5.708;2022-12-29T04:16:32;14.00;99.90
60234;DHT22;49514;43.538;-5.708;2022-12-29T04:19:03;14.00;99.90
60234;DHT22;49514;43.538;-5.708;2022-12-29T04:21:30;14.00;99.90
60234;DHT22;49514;43.538;-5.708;2022-12-29T04:23:58;13.90;99.90
60234;DHT22;49514;43.538;-5.708;2022-12-29T04:26:24;13.80;99.90
60234;DHT22;49514;43.538;-5.708;2022-12-29T04:29:00;13.80;99.90
60234;DHT22;49514;43.538;-5.708;2022-12-29T04:31:58;13.80;99.90
60234;DHT22;49514;43.538;-5.708;2022-12-29T04:36:52;13.70;99.90
60234;DHT22;49514;43.538;-5.708;2022-12-29T04:39:19;13.70;99.90
60234;DHT22;49514;43.538;-5.708;2022-12-29T04:41:45;13.70;99.90
60234;DHT22;49514;43.538;-5.708;2022-12-29T04:44:17;13.70;99.90
60234;DHT22;49514;43.538;-5.708;2022-12-29T04:46:47;13.70;99.90
60234;DHT22;49514;43.538;-5.708;2022-12-29T04:49:36;13.70;99.90
60234;DHT22;49514;43.538;-5.708;2022-12-29T04:52:21;13.70;99.90
60234;DHT22;49514;43.538;-5.708;2022-12-29T04:54:48;13.70;99.90
60234;DHT22;49514;43.538;-5.708;2022-12-29T04:57:19;13.70;99.90
60234;DHT22;49514;43.538;-5.708;2022-12-29T04:59:50;13.70;99.90
60234;DHT22;49514;43.538;-5.708;2022-12-29T05:02:17;13.70;99.90
60234;DHT22;49514;43.538;-5.708;2022-12-29T05:04:45;13.70;99.90
60234;DHT22;49514;43.538;-5.708;2022-12-29T05:07:13;13.70;99.90
60234;DHT22;49514;43.538;-5.708;2022-12-29T05:09:39;13.80;99.90
60234;DHT22;49514;43.538;-5.708;2022-12-29T05:12:06;13.70;99.90
60234;DHT22;49514;43.538;-5.708;2022-12-29T05:14:35;13.70;99.90
60234;DHT22;49514;43.538;-5.708;2022-12-29T05:17:03;13.70;99.90
60234;DHT22;49514;43.538;-5.708;2022-12-29T05:19:30;13.70;99.90
60234;DHT22;49514;43.538;-5.708;2022-12-29T05:21:57;13.80;99.90
60234;DHT22;49514;43.538;-5.708;2022-12-29T05:24:24;13.70;99.90
60234;DHT22;49514;43.538;-5.708;2022-12-29T05:26:54;13.70;99.90
60234;DHT22;49514;43.538;-5.708;2022-12-29T05:29:43;13.70;99.90
60234;DHT22;49514;43.538;-5.708;2022-12-29T05:32:10;13.70;99.90
60234;DHT22;49514;43.538;-5.708;2022-12-29T05:34:37;13.70;99.90
60234;DHT22;49514;43.538;-5.708;2022-12-29T05:37:04;13.80;99.90
60234;DHT22;49514;43.538;-5.708;2022-12-29T05:39:31;13.80;99.90
60234;DHT22;49514;43.538;-5.708;2022-12-29T05:42:01;13.80;99.90
60234;DHT22;49514;43.538;-5.708;2022-12-29T05:44:37;13.80;99.90
60234;DHT22;49514;43.538;-5.708;2022-12-29T05:47:12;13.80;99.90
60234;DHT22;49514;43.538;-5.708;2022-12-29T05:50:11;13.80;99.90
60234;DHT22;49514;43.538;-5.708;2022-12-29T05:53:08;13.80;99.90
60234;DHT22;49514;43.538;-5.708;2022-12-29T05:55:36;13.70;99.90
60234;DHT22;49514;43.538;-5.708;2022-12-29T05:58:03;13.70;99.90
60234;DHT22;49514;43.538;-5.708;2022-12-29T06:00:30;13.70;99.90
60234;DHT22;49514;43.538;-5.708;2022-12-29T06:02:57;13.70;99.90
60234;DHT22;49514;43.538;-5.708;2022-12-29T06:05:24;13.70;99.90
60234;DHT22;49514;43.538;-5.708;2022-12-29T06:07:50;13.70;99.90
60234;DHT22;49514;43.538;-5.708;2022-12-29T06:10:17;13.70;99.90
60234;DHT22;49514;43.538;-5.708;2022-12-29T06:13:01;13.70;99.90
60234;DHT22;49514;43.538;-5.708;2022-12-29T06:15:34;13.70;99.90
60234;DHT22;49514;43.538;-5.708;2022-12-29T06:18:02;13.70;99.90
60234;DHT22;49514;43.538;-5.708;2022-12-29T06:20:29;13.80;99.90
60234;DHT22;49514;43.538;-5.708;2022-12-29T06:22:55;13.80;99.90
60234;DHT22;49514;43.538;-5.708;2022-12-29T06:25:23;13.80;99.90
60234;DHT22;49514;43.538;-5.708;2022-12-29T06:27:50;13.80;99.90
60234;DHT22;49514;43.538;-5.708;2022-12-29T06:30:17;13.80;99.90
60234;DHT22;49514;43.538;-5.708;2022-12-29T06:32:44;13.80;99.90
60234;DHT22;49514;43.538;-5.708;2022-12-29T06:35:12;13.80;99.90
60234;DHT22;49514;43.538;-5.708;2022-12-29T06:37:47;13.80;99.90
60234;DHT22;49514;43.538;-5.708;2022-12-29T06:40:13;13.80;99.90
60234;DHT22;49514;43.538;-5.708;2022-12-29T06:42:59;13.80;99.90
60234;DHT22;49514;43.538;-5.708;2022-12-29T06:45:45;13.80;99.90
60234;DHT22;49514;43.538;-5.708;2022-12-29T06:48:12;13.80;99.90
60234;DHT22;49514;43.538;-5.708;2022-12-29T06:50:39;13.80;99.90
60234;DHT22;49514;43.538;-5.708;2022-12-29T06:53:06;13.80;99.90
60234;DHT22;49514;43.538;-5.708;2022-12-29T06:55:33;13.80;99.90
60234;DHT22;49514;43.538;-5.708;2022-12-29T06:58:00;13.80;99.90
60234;DHT22;49514;43.538;-5.708;2022-12-29T07:00:27;13.80;99.90
60234;DHT22;49514;43.538;-5.708;2022-12-29T07:02:55;13.90;99.90
60234;DHT22;49514;43.538;-5.708;2022-12-29T07:05:24;13.90;99.90
60234;DHT22;49514;43.538;-5.708;2022-12-29T07:07:54;13.90;99.90
60234;DHT22;49514;43.538;-5.708;2022-12-29T07:10:22;13.80;99.90
60234;DHT22;49514;43.538;-5.708;2022-12-29T07:12:49;13.90;99.90
60234;DHT22;49514;43.538;-5.708;2022-12-29T07:15:15;13.90;99.90
60234;DHT22;49514;43.538;-5.708;2022-12-29T07:17:42;13.90;99.90
60234;DHT22;49514;43.538;-5.708;2022-12-29T07:20:09;13.90;99.90
60234;DHT22;49514;43.538;-5.708;2022-12-29T07:22:36;13.80;99.90
60234;DHT22;49514;43.538;-5.708;2022-12-29T07:25:03;13.80;99.90
60234;DHT22;49514;43.538;-5.708;2022-12-29T07:27:30;13.90;99.90
60234;DHT22;49514;43.538;-5.708;2022-12-29T07:29:56;13.90;99.90
60234;DHT22;49514;43.538;-5.708;2022-12-29T07:32:23;13.90;99.90
60234;DHT22;49514;43.538;-5.708;2022-12-29T07:34:50;13.90;99.90
60234;DHT22;49514;43.538;-5.708;2022-12-29T07:37:17;13.90;99.90
60234;DHT22;49514;43.538;-5.708;2022-12-29T07:39:44;13.90;99.90
60234;DHT22;49514;43.538;-5.708;2022-12-29T07:42:11;13.90;99.90
60234;DHT22;49514;43.538;-5.708;2022-12-29T07:44:42;13.90;99.90
60234;DHT22;49514;43.538;-5.708;2022-12-29T07:47:17;13.90;99.90
60234;DHT22;49514;43.538;-5.708;2022-12-29T07:49:44;13.80;99.90
60234;DHT22;49514;43.538;-5.708;2022-12-29T07:52:10;13.80;99.90
60234;DHT22;49514;43.538;-5.708;2022-12-29T07:54:37;13.80;99.90
60234;DHT22;49514;43.538;-5.708;2022-12-29T07:57:05;13.80;99.90
60234;DHT22;49514;43.538;-5.708;2022-12-29T07:59:32;13.80;99.90
60234;DHT22;49514;43.538;-5.708;2022-12-29T08:01:58;13.80;99.90
60234;DHT22;49514;43.538;-5.708;2022-12-29T08:04:25;13.80;99.90
60234;DHT22;49514;43.538;-5.708;2022-12-29T08:06:52;13.70;99.90
60234;DHT22;49514;43.538;-5.708;2022-12-29T08:09:18;13.50;99.90
60234;DHT22;49514;43.538;-5.708;2022-12-29T08:11:45;13.40;99.90
60234;DHT22;49514;43.538;-5.708;2022-12-29T08:14:13;13.30;99.90
60234;DHT22;49514;43.538;-5.708;2022-12-29T08:16:39;13.10;99.90
60234;DHT22;49514;43.538;-5.708;2022-12-29T08:19:06;13.10;99.90
60234;DHT22;49514;43.538;-5.708;2022-12-29T08:21:33;13.00;99.90
60234;DHT22;49514;43.538;-5.708;2022-12-29T08:23:59;13.00;99.90
60234;DHT22;49514;43.538;-5.708;2022-12-29T08:26:26;12.90;99.90
60234;DHT22;49514;43.538;-5.708;2022-12-29T08:28:54;12.90;99.90
60234;DHT22;49514;43.538;-5.708;2022-12-29T08:31:22;12.80;99.90
60234;DHT22;49514;43.538;-5.708;2022-12-29T08:33:49;12.70;99.90
60234;DHT22;49514;43.538;-5.708;2022-12-29T08:38:44;12.60;99.90
60234;DHT22;49514;43.538;-5.708;2022-12-29T08:41:10;12.60;99.90
60234;DHT22;49514;43.538;-5.708;2022-12-29T08:43:37;12.60;99.90
60234;DHT22;49514;43.538;-5.708;2022-12-29T08:48:31;12.50;99.90
60234;DHT22;49514;43.538;-5.708;2022-12-29T08:50:57;12.50;99.90
60234;DHT22;49514;43.538;-5.708;2022-12-29T08:53:24;12.50;99.90
60234;DHT22;49514;43.538;-5.708;2022-12-29T08:55:58;12.60;99.90
60234;DHT22;49514;43.538;-5.708;2022-12-29T08:58:26;12.60;99.90
60234;DHT22;49514;43.538;-5.708;2022-12-29T09:00:54;12.60;99.90
60234;DHT22;49514;43.538;-5.708;2022-12-29T09:03:21;12.70;99.90
60234;DHT22;49514;43.538;-5.708;2022-12-29T09:05:53;12.70;99.90
60234;DHT22;49514;43.538;-5.708;2022-12-29T09:08:22;12.70;99.90
60234;DHT22;49514;43.538;-5.708;2022-12-29T09:10:49;12.70;99.90
60234;DHT22;49514;43.538;-5.708;2022-12-29T09:13:16;12.80;99.90
60234;DHT22;49514;43.538;-5.708;2022-12-29T09:15:43;12.80;99.90
60234;DHT22;49514;43.538;-5.708;2022-12-29T09:18:11;12.90;99.90
60234;DHT22;49514;43.538;-5.708;2022-12-29T09:20:38;12.90;99.90
60234;DHT22;49514;43.538;-5.708;2022-12-29T09:23:05;12.90;99.90
60234;DHT22;49514;43.538;-5.708;2022-12-29T09:25:33;13.00;99.90
60234;DHT22;49514;43.538;-5.708;2022-12-29T09:28:00;13.10;99.90
60234;DHT22;49514;43.538;-5.708;2022-12-29T09:30:30;13.10;99.90
60234;DHT22;49514;43.538;-5.708;2022-12-29T09:32:57;13.20;99.90
60234;DHT22;49514;43.538;-5.708;2022-12-29T09:35:24;13.20;99.90
60234;DHT22;49514;43.538;-5.708;2022-12-29T09:37:50;13.20;99.90
60234;DHT22;49514;43.538;-5.708;2022-12-29T09:40:32;13.20;99.90
60234;DHT22;49514;43.538;-5.708;2022-12-29T09:45:51;13.30;99.90
60234;DHT22;49514;43.538;-5.708;2022-12-29T09:48:25;13.40;99.90
60234;DHT22;49514;43.538;-5.708;2022-12-29T09:50:58;13.40;99.90
60234;DHT22;49514;43.538;-5.708;2022-12-29T09:53:33;13.50;99.90
60234;DHT22;49514;43.538;-5.708;2022-12-29T09:56:02;13.50;99.90
60234;DHT22;49514;43.538;-5.708;2022-12-29T10:01:06;13.60;99.90
60234;DHT22;49514;43.538;-5.708;2022-12-29T10:03:51;13.70;99.90
60234;DHT22;49514;43.538;-5.708;2022-12-29T10:07:08;13.80;99.90
60234;DHT22;49514;43.538;-5.708;2022-12-29T10:18:08;13.70;99.90
60234;DHT22;49514;43.538;-5.708;2022-12-29T10:25:41;13.70;99.90
60234;DHT22;49514;43.538;-5.708;2022-12-29T10:28:36;13.70;99.90
60234;DHT22;49514;43.538;-5.708;2022-12-29T10:31:14;13.80;99.90
60234;DHT22;49514;43.538;-5.708;2022-12-29T10:33:43;14.00;99.90
60234;DHT22;49514;43.538;-5.708;2022-12-29T10:36:39;14.00;99.90
60234;DHT22;49514;43.538;-5.708;2022-12-29T10:39:13;14.10;99.90
60234;DHT22;49514;43.538;-5.708;2022-12-29T10:41:51;14.30;99.90
60234;DHT22;49514;43.538;-5.708;2022-12-29T10:44:20;14.40;99.90
60234;DHT22;49514;43.538;-5.708;2022-12-29T10:47:04;14.50;99.90
60234;DHT22;49514;43.538;-5.708;2022-12-29T10:49:37;14.60;99.90
60234;DHT22;49514;43.538;-5.708;2022-12-29T10:52:06;14.60;99.90
60234;DHT22;49514;43.538;-5.708;2022-12-29T10:54:44;14.60;99.90
60234;DHT22;49514;43.538;-5.708;2022-12-29T10:57:36;14.60;99.90
60234;DHT22;49514;43.538;-5.708;2022-12-29T11:00:21;14.70;99.90
60234;DHT22;49514;43.538;-5.708;2022-12-29T11:08:22;15.00;99.90
60234;DHT22;49514;43.538;-5.708;2022-12-29T11:11:02;15.10;99.90
60234;DHT22;49514;43.538;-5.708;2022-12-29T11:13:31;15.20;99.90
60234;DHT22;49514;43.538;-5.708;2022-12-29T11:15:58;15.30;99.90
60234;DHT22;49514;43.538;-5.708;2022-12-29T11:18:38;15.40;99.90
60234;DHT22;49514;43.538;-5.708;2022-12-29T11:23:40;15.70;99.90
60234;DHT22;49514;43.538;-5.708;2022-12-29T11:26:16;15.70;99.90
60234;DHT22;49514;43.538;-5.708;2022-12-29T11:31:52;15.70;99.90
60234;DHT22;49514;43.538;-5.708;2022-12-29T11:34:24;15.70;99.90
60234;DHT22;49514;43.538;-5.708;2022-12-29T11:36:54;15.80;99.90
60234;DHT22;49514;43.538;-5.708;2022-12-29T11:42:28;15.90;99.90
60234;DHT22;49514;43.538;-5.708;2022-12-29T11:45:26;16.10;99.90
60234;DHT22;49514;43.538;-5.708;2022-12-29T11:47:52;16.20;99.90
60234;DHT22;49514;43.538;-5.708;2022-12-29T11:50:29;16.40;99.90
60234;DHT22;49514;43.538;-5.708;2022-12-29T11:55:37;16.70;99.90
60234;DHT22;49514;43.538;-5.708;2022-12-29T11:58:04;17.00;99.90
60234;DHT22;49514;43.538;-5.708;2022-12-29T12:08:54;17.50;99.90
60234;DHT22;49514;43.538;-5.708;2022-12-29T12:11:32;17.60;99.90
60234;DHT22;49514;43.538;-5.708;2022-12-29T12:17:31;17.60;99.90
60234;DHT22;49514;43.538;-5.708;2022-12-29T12:20:18;17.50;99.90
60234;DHT22;49514;43.538;-5.708;2022-12-29T12:23:11;17.40;99.90
60234;DHT22;49514;43.538;-5.708;2022-12-29T12:25:46;17.30;99.90
60234;DHT22;49514;43.538;-5.708;2022-12-29T12:28:26;17.20;99.90
60234;DHT22;49514;43.538;-5.708;2022-12-29T12:30:58;17.10;99.90
60234;DHT22;49514;43.538;-5.708;2022-12-29T12:33:32;17.00;99.90
60234;DHT22;49514;43.538;-5.708;2022-12-29T12:39:10;17.00;99.90
60234;DHT22;49514;43.538;-5.708;2022-12-29T12:44:52;17.00;99.90
60234;DHT22;49514;43.538;-5.708;2022-12-29T12:53:01;17.10;99.90
60234;DHT22;49514;43.538;-5.708;2022-12-29T12:58:28;17.10;99.90
60234;DHT22;49514;43.538;-5.708;2022-12-29T13:04:28;17.20;99.90
60234;DHT22;49514;43.538;-5.708;2022-12-29T13:28:31;17.00;99.90
60234;DHT22;49514;43.538;-5.708;2022-12-29T13:31:35;17.00;99.90
60234;DHT22;49514;43.538;-5.708;2022-12-29T13:36:44;16.80;99.90
60234;DHT22;49514;43.538;-5.708;2022-12-29T13:39:32;16.80;99.90
60234;DHT22;49514;43.538;-5.708;2022-12-29T13:42:02;16.80;99.90
60234;DHT22;49514;43.538;-5.708;2022-12-29T13:44:43;16.80;99.90
60234;DHT22;49514;43.538;-5.708;2022-12-29T13:47:31;16.80;99.90
60234;DHT22;49514;43.538;-5.708;2022-12-29T13:50:00;16.80;99.90
60234;DHT22;49514;43.538;-5.708;2022-12-29T13:58:39;16.90;99.90
60234;DHT22;49514;43.538;-5.708;2022-12-29T14:01:35;16.80;99.90
60234;DHT22;49514;43.538;-5.708;2022-12-29T14:04:14;16.90;99.90
60234;DHT22;49514;43.538;-5.708;2022-12-29T14:06:41;17.10;99.90
60234;DHT22;49514;43.538;-5.708;2022-12-29T14:09:39;17.20;99.90
60234;DHT22;49514;43.538;-5.708;2022-12-29T14:15:27;17.10;99.90
60234;DHT22;49514;43.538;-5.708;2022-12-29T14:18:05;17.00;99.90
60234;DHT22;49514;43.538;-5.708;2022-12-29T14:20:33;17.00;99.90
60234;DHT22;49514;43.538;-5.708;2022-12-29T14:23:01;16.90;99.90
60234;DHT22;49514;43.538;-5.708;2022-12-29T14:25:57;16.80;99.90
60234;DHT22;49514;43.538;-5.708;2022-12-29T14:28:25;16.70;99.90
60234;DHT22;49514;43.538;-5.708;2022-12-29T14:30:52;16.60;99.90
60234;DHT22;49514;43.538;-5.708;2022-12-29T14:33:20;16.60;99.90
60234;DHT22;49514;43.538;-5.708;2022-12-29T14:35:48;16.50;99.90
60234;DHT22;49514;43.538;-5.708;2022-12-29T14:38:19;16.50;99.90
60234;DHT22;49514;43.538;-5.708;2022-12-29T14:40:46;16.40;99.90
60234;DHT22;49514;43.538;-5.708;2022-12-29T14:43:20;16.30;99.90
60234;DHT22;49514;43.538;-5.708;2022-12-29T14:45:51;16.20;99.90
60234;DHT22;49514;43.538;-5.708;2022-12-29T14:48:25;16.10;99.90
60234;DHT22;49514;43.538;-5.708;2022-12-29T14:50:54;16.00;99.90
60234;DHT22;49514;43.538;-5.708;2022-12-29T14:53:41;16.00;99.90
60234;DHT22;49514;43.538;-5.708;2022-12-29T14:56:08;16.00;99.90
60234;DHT22;49514;43.538;-5.708;2022-12-29T14:58:42;15.90;99.90
60234;DHT22;49514;43.538;-5.708;2022-12-29T15:01:34;15.80;99.90
60234;DHT22;49514;43.538;-5.708;2022-12-29T15:04:18;15.70;99.90
60234;DHT22;49514;43.538;-5.708;2022-12-29T15:06:47;15.60;99.90
60234;DHT22;49514;43.538;-5.708;2022-12-29T15:12:01;15.50;99.90
60234;DHT22;49514;43.538;-5.708;2022-12-29T15:14:34;15.50;99.90
60234;DHT22;49514;43.538;-5.708;2022-12-29T15:17:02;15.40;99.90
60234;DHT22;49514;43.538;-5.708;2022-12-29T15:19:35;15.40;99.90
60234;DHT22;49514;43.538;-5.708;2022-12-29T15:22:02;15.40;99.90
60234;DHT22;49514;43.538;-5.708;2022-12-29T15:24:29;15.30;99.90
60234;DHT22;49514;43.538;-5.708;2022-12-29T15:26:55;15.30;99.90
60234;DHT22;49514;43.538;-5.708;2022-12-29T15:29:32;15.30;99.90
60234;DHT22;49514;43.538;-5.708;2022-12-29T15:32:00;15.20;99.90
60234;DHT22;49514;43.538;-5.708;2022-12-29T15:34:29;15.20;99.90
60234;DHT22;49514;43.538;-5.708;2022-12-29T15:36:56;15.10;99.90
60234;DHT22;49514;43.538;-5.708;2022-12-29T15:39:27;15.00;99.90
60234;DHT22;49514;43.538;-5.708;2022-12-29T15:42:10;15.00;99.90
60234;DHT22;49514;43.538;-5.708;2022-12-29T15:44:43;14.90;99.90
60234;DHT22;49514;43.538;-5.708;2022-12-29T15:49:42;14.80;99.90
60234;DHT22;49514;43.538;-5.708;2022-12-29T15:52:09;14.80;99.90
60234;DHT22;49514;43.538;-5.708;2022-12-29T15:54:36;14.80;99.90
60234;DHT22;49514;43.538;-5.708;2022-12-29T15:57:04;14.70;99.90
60234;DHT22;49514;43.538;-5.708;2022-12-29T15:59:35;14.70;99.90
60234;DHT22;49514;43.538;-5.708;2022-12-29T16:02:02;14.60;99.90
60234;DHT22;49514;43.538;-5.708;2022-12-29T16:04:29;14.60;99.90
60234;DHT22;49514;43.538;-5.708;2022-12-29T16:07:01;14.60;99.90
60234;DHT22;49514;43.538;-5.708;2022-12-29T16:12:35;14.50;99.90
60234;DHT22;49514;43.538;-5.708;2022-12-29T16:14:54;14.50;99.90
60234;DHT22;49514;43.538;-5.708;2022-12-29T16:17:22;14.40;99.90
60234;DHT22;49514;43.538;-5.708;2022-12-29T16:22:46;14.30;99.90
60234;DHT22;49514;43.538;-5.708;2022-12-29T16:27:45;14.30;99.90
60234;DHT22;49514;43.538;-5.708;2022-12-29T16:30:33;14.20;99.90
60234;DHT22;49514;43.538;-5.708;2022-12-29T16:33:00;14.20;99.90
60234;DHT22;49514;43.538;-5.708;2022-12-29T16:35:28;14.20;99.90
60234;DHT22;49514;43.538;-5.708;2022-12-29T16:40:53;14.10;99.90
60234;DHT22;49514;43.538;-5.708;2022-12-29T16:43:21;14.10;99.90
60234;DHT22;49514;43.538;-5.708;2022-12-29T16:48:18;14.00;99.90
60234;DHT22;49514;43.538;-5.708;2022-12-29T16:50:46;14.00;99.90
60234;DHT22;49514;43.538;-5.708;2022-12-29T16:55:52;13.90;99.90
60234;DHT22;49514;43.538;-5.708;2022-12-29T16:58:20;13.90;99.90
60234;DHT22;49514;43.538;-5.708;2022-12-29T17:00:47;13.90;99.90
60234;DHT22;49514;43.538;-5.708;2022-12-29T17:03:14;13.90;99.90
60234;DHT22;49514;43.538;-5.708;2022-12-29T17:05:41;13.90;99.90
60234;DHT22;49514;43.538;-5.708;2022-12-29T17:08:17;13.90;99.90
60234;DHT22;49514;43.538;-5.708;2022-12-29T17:10:52;13.90;99.90
60234;DHT22;49514;43.538;-5.708;2022-12-29T17:13:38;13.80;99.90
60234;DHT22;49514;43.538;-5.708;2022-12-29T17:16:05;13.80;99.90
60234;DHT22;49514;43.538;-5.708;2022-12-29T17:18:36;13.80;99.90
60234;DHT22;49514;43.538;-5.708;2022-12-29T17:21:02;13.80;99.90
60234;DHT22;49514;43.538;-5.708;2022-12-29T17:23:29;13.80;99.90
60234;DHT22;49514;43.538;-5.708;2022-12-29T17:25:57;13.70;99.90
60234;DHT22;49514;43.538;-5.708;2022-12-29T17:28:26;13.70;99.90
60234;DHT22;49514;43.538;-5.708;2022-12-29T17:30:54;13.70;99.90
60234;DHT22;49514;43.538;-5.708;2022-12-29T17:33:21;13.70;99.90
60234;DHT22;49514;43.538;-5.708;2022-12-29T17:35:48;13.70;99.90
60234;DHT22;49514;43.538;-5.708;2022-12-29T17:40:41;13.60;99.90
60234;DHT22;49514;43.538;-5.708;2022-12-29T17:43:08;13.60;99.90
60234;DHT22;49514;43.538;-5.708;2022-12-29T17:45:35;13.60;99.90
60234;DHT22;49514;43.538;-5.708;2022-12-29T17:48:02;13.60;99.90
60234;DHT22;49514;43.538;-5.708;2022-12-29T17:50:29;13.50;99.90
60234;DHT22;49514;43.538;-5.708;2022-12-29T17:53:00;13.50;99.90
60234;DHT22;49514;43.538;-5.708;2022-12-29T17:55:28;13.50;99.90
60234;DHT22;49514;43.538;-5.708;2022-12-29T17:57:55;13.50;99.90
60234;DHT22;49514;43.538;-5.708;2022-12-29T18:00:23;13.50;99.90
60234;DHT22;49514;43.538;-5.708;2022-12-29T18:02:49;13.50;99.90
60234;DHT22;49514;43.538;-5.708;2022-12-29T18:05:18;13.50;99.90
60234;DHT22;49514;43.538;-5.708;2022-12-29T18:07:45;13.50;99.90
60234;DHT22;49514;43.538;-5.708;2022-12-29T18:10:12;13.40;99.90
60234;DHT22;49514;43.538;-5.708;2022-12-29T18:12:46;13.40;99.90
60234;DHT22;49514;43.538;-5.708;2022-12-29T18:15:23;13.40;99.90
60234;DHT22;49514;43.538;-5.708;2022-12-29T18:17:54;13.40;99.90
60234;DHT22;49514;43.538;-5.708;2022-12-29T18:20:23;13.40;99.90
60234;DHT22;49514;43.538;-5.708;2022-12-29T18:22:51;13.40;99.90
60234;DHT22;49514;43.538;-5.708;2022-12-29T18:25:25;13.40;99.90
60234;DHT22;49514;43.538;-5.708;2022-12-29T18:27:54;13.40;99.90
60234;DHT22;49514;43.538;-5.708;2022-12-29T18:30:20;13.40;99.90
60234;DHT22;49514;43.538;-5.708;2022-12-29T18:32:47;13.40;99.90